createdAt,value
2023-05-05T00:00:59.207Z,18.14
2023-05-05T00:03:26.908Z,18.07
2023-05-05T00:05:54.946Z,18.00
2023-05-05T00:08:22.526Z,17.92
2023-05-05T00:10:50.718Z,17.87
2023-05-05T00:13:19.196Z,17.85
2023-05-05T00:15:46.790Z,17.80
2023-05-05T00:18:14.366Z,17.74
2023-05-05T00:20:42.095Z,17.68
2023-05-05T00:23:09.696Z,17.63
2023-05-05T00:25:37.471Z,17.56
2023-05-05T00:28:05.081Z,17.48
2023-05-05T00:30:33.041Z,17.42
2023-05-05T00:33:00.680Z,17.32
2023-05-05T00:35:28.618Z,17.25
2023-05-05T00:37:56.360Z,17.24
2023-05-05T00:40:23.976Z,17.19
2023-05-05T00:42:51.827Z,17.19
2023-05-05T00:45:19.410Z,17.19
2023-05-05T00:47:47.128Z,17.18
2023-05-05T00:50:14.795Z,17.18
2023-05-05T00:52:42.358Z,17.13
2023-05-05T00:55:10.253Z,17.08
2023-05-05T00:57:41.176Z,17.04
2023-05-05T01:00:10.011Z,16.98
2023-05-05T01:02:37.796Z,16.94
2023-05-05T01:05:05.927Z,16.92
2023-05-05T01:07:33.891Z,16.92
2023-05-05T01:10:18.013Z,16.90
2023-05-05T01:12:47.657Z,16.92
2023-05-05T01:15:15.233Z,16.95
2023-05-05T01:17:43.533Z,16.94
2023-05-05T01:20:11.243Z,16.96
2023-05-05T01:22:38.978Z,16.97
2023-05-05T01:25:06.790Z,16.96
2023-05-05T01:27:34.501Z,16.95
2023-05-05T01:30:02.240Z,16.94
2023-05-05T01:32:29.820Z,16.92
2023-05-05T01:34:57.493Z,16.92
2023-05-05T01:37:25.056Z,16.92
2023-05-05T01:39:52.631Z,16.94
2023-05-05T01:42:20.668Z,16.95
2023-05-05T01:44:48.191Z,16.97
2023-05-05T01:47:15.748Z,17.00
2023-05-05T01:49:43.356Z,17.04
2023-05-05T01:52:10.868Z,17.08
2023-05-05T01:54:38.801Z,17.10
2023-05-05T01:57:06.366Z,17.12
2023-05-05T01:59:33.958Z,17.14
2023-05-05T02:02:02.997Z,17.18
2023-05-05T02:04:31.360Z,17.23
2023-05-05T02:06:59.336Z,17.27
2023-05-05T02:09:26.932Z,17.28
2023-05-05T02:11:54.525Z,17.30
2023-05-05T02:14:22.357Z,17.33
2023-05-05T02:16:49.885Z,17.36
2023-05-05T02:19:17.479Z,17.39
2023-05-05T02:21:45.104Z,17.41
2023-05-05T02:24:12.928Z,17.43
2023-05-05T02:26:40.530Z,17.45
2023-05-05T02:29:08.535Z,17.48
2023-05-05T02:31:36.505Z,17.47
2023-05-05T02:34:04.171Z,17.46
2023-05-05T02:36:31.691Z,17.42
2023-05-05T02:38:59.382Z,17.37
2023-05-05T02:41:26.949Z,17.34
2023-05-05T02:43:55.154Z,17.34
2023-05-05T02:46:23.019Z,17.31
2023-05-05T02:48:50.689Z,17.30
2023-05-05T02:51:18.430Z,17.28
2023-05-05T02:53:45.974Z,17.23
2023-05-05T02:56:13.945Z,17.17
2023-05-05T02:58:42.662Z,17.11
2023-05-05T03:01:10.359Z,17.08
2023-05-05T03:03:38.215Z,17.07
2023-05-05T03:06:05.978Z,17.08
2023-05-05T03:08:33.945Z,17.07
2023-05-05T03:11:01.585Z,17.05
2023-05-05T03:13:29.180Z,17.05
2023-05-05T03:15:56.887Z,17.05
2023-05-05T03:18:24.553Z,17.05
2023-05-05T03:20:52.528Z,17.03
2023-05-05T03:23:21.160Z,17.01
2023-05-05T03:25:48.766Z,16.98
2023-05-05T03:28:17.171Z,16.91
2023-05-05T03:30:44.710Z,16.86
2023-05-05T03:33:12.650Z,16.83
2023-05-05T03:35:40.277Z,16.79
2023-05-05T03:38:07.855Z,16.77
2023-05-05T03:40:43.398Z,16.76
2023-05-05T03:43:12.013Z,16.75
2023-05-05T03:45:40.067Z,16.75
2023-05-05T03:48:09.803Z,16.81
2023-05-05T03:50:37.724Z,16.85
2023-05-05T03:53:05.324Z,16.91
2023-05-05T03:55:32.885Z,16.95
2023-05-05T03:58:00.910Z,16.99
2023-05-05T04:00:28.534Z,17.01
2023-05-05T04:02:56.377Z,17.04
2023-05-05T04:05:24.224Z,17.06
2023-05-05T04:07:51.837Z,17.04
2023-05-05T04:10:19.790Z,17.03
2023-05-05T04:12:47.523Z,17.03
2023-05-05T04:15:15.365Z,17.03
2023-05-05T04:17:42.998Z,16.99
2023-05-05T04:20:10.783Z,16.95
2023-05-05T04:22:38.875Z,16.93
2023-05-05T04:25:06.730Z,16.91
2023-05-05T04:27:34.312Z,16.88
2023-05-05T04:30:01.919Z,16.88
2023-05-05T04:32:29.870Z,16.90
2023-05-05T04:34:57.715Z,16.92
2023-05-05T04:37:26.006Z,16.91
2023-05-05T04:39:53.834Z,16.92
2023-05-05T04:42:21.466Z,16.91
2023-05-05T04:44:49.164Z,16.92
2023-05-05T04:47:16.806Z,16.95
2023-05-05T04:49:45.081Z,16.98
2023-05-05T04:52:12.780Z,17.00
2023-05-05T04:54:40.659Z,17.00
2023-05-05T04:57:08.583Z,17.00
2023-05-05T04:59:36.930Z,17.01
2023-05-05T05:02:04.712Z,17.02
2023-05-05T05:04:32.479Z,17.06
2023-05-05T05:07:01.537Z,17.09
2023-05-05T05:09:29.115Z,17.12
2023-05-05T05:11:57.143Z,17.16
2023-05-05T05:14:24.880Z,17.20
2023-05-05T05:16:53.757Z,17.21
2023-05-05T05:19:21.420Z,17.23
2023-05-05T05:21:49.217Z,17.24
2023-05-05T05:24:17.199Z,17.26
2023-05-05T05:26:44.864Z,17.27
2023-05-05T05:29:12.976Z,17.28
2023-05-05T05:31:40.693Z,17.34
2023-05-05T05:34:09.370Z,17.40
2023-05-05T05:36:38.764Z,17.48
2023-05-05T05:39:06.527Z,17.57
2023-05-05T05:41:34.316Z,17.67
2023-05-05T05:44:02.025Z,17.76
2023-05-05T05:46:29.726Z,17.84
2023-05-05T05:48:57.465Z,17.94
2023-05-05T05:51:25.179Z,18.01
2023-05-05T05:53:53.049Z,18.05
2023-05-05T05:56:20.667Z,18.09
2023-05-05T05:58:49.987Z,18.14
2023-05-05T06:01:18.038Z,18.20
2023-05-05T06:03:45.901Z,18.25
2023-05-05T06:06:14.070Z,18.27
2023-05-05T06:08:41.797Z,18.26
2023-05-05T06:11:09.425Z,18.30
2023-05-05T06:13:37.499Z,18.37
2023-05-05T06:16:05.150Z,18.44
2023-05-05T06:18:32.899Z,18.54
2023-05-05T06:21:00.653Z,18.64
2023-05-05T06:23:28.347Z,18.73
2023-05-05T06:25:56.244Z,18.78
2023-05-05T06:28:24.100Z,18.85
2023-05-05T06:30:51.984Z,18.90
2023-05-05T06:33:19.687Z,18.91
2023-05-05T06:35:48.081Z,18.90
2023-05-05T06:38:16.128Z,18.89
2023-05-05T06:40:43.850Z,18.90
2023-05-05T06:43:12.034Z,18.89
2023-05-05T06:45:39.636Z,18.88
2023-05-05T06:48:07.378Z,18.88
2023-05-05T06:50:35.175Z,18.92
2023-05-05T06:53:02.881Z,18.95
2023-05-05T06:55:30.550Z,19.02
2023-05-05T06:57:58.378Z,19.12
2023-05-05T07:00:26.049Z,19.20
2023-05-05T07:03:00.155Z,19.31
2023-05-05T07:05:27.927Z,19.44
2023-05-05T07:07:55.874Z,19.52
2023-05-05T07:10:23.869Z,19.58
2023-05-05T07:12:51.807Z,19.65
2023-05-05T07:15:28.728Z,19.71
2023-05-05T07:17:57.829Z,19.73
2023-05-05T07:20:25.826Z,19.76
2023-05-05T07:22:53.511Z,19.77
2023-05-05T07:25:21.707Z,19.89
2023-05-05T07:27:49.378Z,20.00
2023-05-05T07:30:19.086Z,20.12
2023-05-05T07:32:47.584Z,20.25
2023-05-05T07:35:15.375Z,20.34
2023-05-05T07:37:43.035Z,20.43
2023-05-05T07:40:11.278Z,20.56
2023-05-05T07:42:39.385Z,20.67
2023-05-05T07:45:07.629Z,20.77
2023-05-05T07:47:35.518Z,20.90
2023-05-05T07:50:03.724Z,21.02
2023-05-05T07:52:45.376Z,21.11
2023-05-05T07:55:17.977Z,21.21
2023-05-05T07:57:45.757Z,21.25
2023-05-05T08:00:13.893Z,21.28
2023-05-05T08:02:41.844Z,21.34
2023-05-05T08:05:10.074Z,21.39
2023-05-05T08:07:41.749Z,21.42
2023-05-05T08:10:09.676Z,21.40
2023-05-05T08:12:37.511Z,21.37
2023-05-05T08:15:05.526Z,21.41
2023-05-05T08:17:33.769Z,21.41
2023-05-05T08:20:01.545Z,21.44
2023-05-05T08:22:29.426Z,21.49
2023-05-05T08:24:57.862Z,21.52
2023-05-05T08:27:26.005Z,21.51
2023-05-05T08:29:53.787Z,21.52
2023-05-05T08:32:21.997Z,21.61
2023-05-05T08:34:49.803Z,21.70
2023-05-05T08:37:19.570Z,21.71
2023-05-05T08:39:47.262Z,21.77
2023-05-05T08:42:25.502Z,21.83
2023-05-05T08:45:01.304Z,21.93
2023-05-05T08:47:30.647Z,22.03
2023-05-05T08:49:58.542Z,22.09
2023-05-05T08:52:26.480Z,22.06
2023-05-05T08:54:54.390Z,22.07
2023-05-05T08:57:22.489Z,22.06
2023-05-05T08:59:50.986Z,22.15
2023-05-05T09:02:19.034Z,22.27
2023-05-05T09:04:46.931Z,22.36
2023-05-05T09:07:14.951Z,22.43
2023-05-05T09:09:44.240Z,22.46
2023-05-05T09:12:12.600Z,22.49
2023-05-05T09:14:40.896Z,22.57
2023-05-05T09:17:08.969Z,22.66
2023-05-05T09:19:36.926Z,22.76
2023-05-05T09:22:04.809Z,22.84
2023-05-05T09:24:32.891Z,22.91
2023-05-05T09:27:01.915Z,23.01
2023-05-05T09:29:29.753Z,23.12
2023-05-05T09:31:57.462Z,23.23
2023-05-05T09:34:25.620Z,23.42
2023-05-05T09:36:54.282Z,23.62
2023-05-05T09:39:22.261Z,23.91
2023-05-05T09:41:50.015Z,24.18
2023-05-05T09:44:17.935Z,24.38
2023-05-05T09:46:45.914Z,24.67
2023-05-05T09:49:14.381Z,24.83
2023-05-05T09:51:42.633Z,25.14
2023-05-05T09:54:10.390Z,25.42
2023-05-05T09:56:38.164Z,25.49
2023-05-05T09:59:06.101Z,25.76
2023-05-05T10:01:34.365Z,26.03
2023-05-05T10:04:02.150Z,26.44
2023-05-05T10:06:30.111Z,26.78
2023-05-05T10:08:57.910Z,27.15
2023-05-05T10:11:25.820Z,27.63
2023-05-05T10:13:54.817Z,28.01
2023-05-05T10:16:24.238Z,28.23
2023-05-05T10:18:52.142Z,28.46
2023-05-05T10:21:20.191Z,28.61
2023-05-05T10:23:48.776Z,28.78
2023-05-05T10:26:17.288Z,29.01
2023-05-05T10:28:45.344Z,29.27
2023-05-05T10:31:24.475Z,29.64
2023-05-05T10:33:55.742Z,29.77
2023-05-05T10:36:26.944Z,29.21
2023-05-05T10:38:54.837Z,29.21
2023-05-05T10:41:23.013Z,29.39
2023-05-05T10:43:51.580Z,29.16
2023-05-05T10:46:29.864Z,29.41
2023-05-05T10:48:57.876Z,29.95
2023-05-05T10:51:38.756Z,30.06
2023-05-05T10:54:09.206Z,30.07
2023-05-05T10:56:38.014Z,30.26
2023-05-05T10:59:05.990Z,29.88
2023-05-05T11:01:34.249Z,29.57
2023-05-05T11:04:02.195Z,30.04
2023-05-05T11:06:31.296Z,30.15
2023-05-05T11:09:00.216Z,29.81
2023-05-05T11:11:28.090Z,29.98
2023-05-05T11:13:56.106Z,30.08
2023-05-05T11:16:24.490Z,30.33
2023-05-05T11:18:52.537Z,30.70
2023-05-05T11:21:21.312Z,31.12
2023-05-05T11:23:49.507Z,31.17
2023-05-05T11:26:17.387Z,30.70
2023-05-05T11:28:45.137Z,29.86
2023-05-05T11:31:13.091Z,29.30
2023-05-05T11:33:41.797Z,28.86
2023-05-05T11:36:10.684Z,28.51
2023-05-05T11:38:39.247Z,28.16
2023-05-05T11:41:07.229Z,27.84
2023-05-05T11:43:35.183Z,27.37
2023-05-05T11:46:03.757Z,26.94
2023-05-05T11:48:31.578Z,26.71
2023-05-05T11:50:59.403Z,26.53
2023-05-05T11:53:27.148Z,26.36
2023-05-05T11:55:54.969Z,26.15
2023-05-05T11:58:23.162Z,25.86
2023-05-05T12:00:51.799Z,25.51
2023-05-05T12:03:19.662Z,25.21
2023-05-05T12:05:49.026Z,24.85
2023-05-05T12:08:17.069Z,24.46
2023-05-05T12:10:45.518Z,24.14
2023-05-05T12:13:13.854Z,23.89
2023-05-05T12:15:42.313Z,23.64
2023-05-05T12:18:10.082Z,23.43
2023-05-05T12:20:38.327Z,23.23
2023-05-05T12:23:06.927Z,23.01
2023-05-05T12:25:34.690Z,22.80
2023-05-05T12:28:02.608Z,22.64
2023-05-05T12:30:30.538Z,22.49
2023-05-05T12:32:58.480Z,22.38
2023-05-05T12:35:29.269Z,22.27
2023-05-05T12:37:57.291Z,22.14
2023-05-05T12:40:25.139Z,21.84
2023-05-05T12:42:53.953Z,21.24
2023-05-05T12:45:21.990Z,20.71
2023-05-05T12:47:50.346Z,20.42
2023-05-05T12:50:18.197Z,20.27
2023-05-05T12:52:46.115Z,20.14
2023-05-05T12:55:14.009Z,19.96
2023-05-05T12:57:41.783Z,19.60
2023-05-05T13:00:10.756Z,19.19
2023-05-05T13:02:38.589Z,18.75
2023-05-05T13:05:06.748Z,18.33
2023-05-05T13:07:34.731Z,18.01
2023-05-05T13:10:02.932Z,17.74
2023-05-05T13:12:30.984Z,17.48
2023-05-05T13:14:59.162Z,17.22
2023-05-05T13:17:27.116Z,17.00
2023-05-05T13:19:54.942Z,16.78
2023-05-05T13:22:22.798Z,16.49
2023-05-05T13:24:52.660Z,16.22
2023-05-05T13:27:21.463Z,16.01
2023-05-05T13:29:49.454Z,15.90
2023-05-05T13:32:17.273Z,15.76
2023-05-05T13:34:45.123Z,15.62
2023-05-05T13:37:13.410Z,15.52
2023-05-05T13:39:41.292Z,15.49
2023-05-05T13:42:09.178Z,15.50
2023-05-05T13:44:37.163Z,15.51
2023-05-05T13:47:05.085Z,15.52
2023-05-05T13:49:33.977Z,15.54
2023-05-05T13:52:02.402Z,15.58
2023-05-05T13:54:30.185Z,15.66
2023-05-05T13:56:58.168Z,15.73
2023-05-05T13:59:26.828Z,15.88
2023-05-05T14:01:55.770Z,16.06
2023-05-05T14:04:23.724Z,16.21
2023-05-05T14:06:51.881Z,16.39
2023-05-05T14:09:19.702Z,16.56
2023-05-05T14:11:47.904Z,16.73
2023-05-05T14:14:17.050Z,16.87
2023-05-05T14:16:44.884Z,16.97
2023-05-05T14:19:12.664Z,17.07
2023-05-05T14:21:40.540Z,17.14
2023-05-05T14:24:08.286Z,17.19
2023-05-05T14:26:36.604Z,17.31
2023-05-05T14:29:04.640Z,17.46
2023-05-05T14:31:32.561Z,17.62
2023-05-05T14:34:00.481Z,17.72
2023-05-05T14:36:28.518Z,17.80
2023-05-05T14:38:56.935Z,17.87
2023-05-05T14:41:24.925Z,17.85
2023-05-05T14:43:53.004Z,17.79
2023-05-05T14:46:20.956Z,17.74
2023-05-05T14:48:48.919Z,17.72
2023-05-05T14:51:17.970Z,17.74
2023-05-05T14:53:45.862Z,17.79
2023-05-05T14:56:14.151Z,17.79
2023-05-05T14:58:42.009Z,17.78
2023-05-05T15:01:09.869Z,17.78
2023-05-05T15:03:38.123Z,17.79
2023-05-05T15:06:06.365Z,17.82
2023-05-05T15:08:34.210Z,17.83
2023-05-05T15:11:02.087Z,17.88
2023-05-05T15:13:30.254Z,17.89
2023-05-05T15:15:59.201Z,17.92
2023-05-05T15:18:27.600Z,17.96
2023-05-05T15:20:55.655Z,18.01
2023-05-05T15:23:23.480Z,18.02
2023-05-05T15:25:51.360Z,18.01
2023-05-05T15:28:20.026Z,18.00
2023-05-05T15:30:47.878Z,17.99
2023-05-05T15:33:15.696Z,17.96
2023-05-05T15:35:43.659Z,17.93
2023-05-05T15:38:11.549Z,17.90
2023-05-05T15:40:41.506Z,17.86
2023-05-05T15:43:09.353Z,17.81
2023-05-05T15:45:37.266Z,17.77
2023-05-05T15:48:05.206Z,17.73
2023-05-05T15:50:33.288Z,17.70
2023-05-05T15:53:01.648Z,17.65
2023-05-05T15:55:29.734Z,17.58
2023-05-05T15:57:57.921Z,17.51
2023-05-05T16:00:25.854Z,17.45
2023-05-05T16:02:53.767Z,17.43
2023-05-05T16:05:23.090Z,17.41
2023-05-05T16:07:52.046Z,17.36
2023-05-05T16:10:20.677Z,17.19
2023-05-05T16:12:48.815Z,16.91
2023-05-05T16:15:16.764Z,16.63
2023-05-05T16:17:45.139Z,16.35
2023-05-05T16:20:13.193Z,16.11
2023-05-05T16:22:41.393Z,15.86
2023-05-05T16:25:10.085Z,15.51
2023-05-05T16:27:38.359Z,15.24
2023-05-05T16:30:06.787Z,15.06
2023-05-05T16:32:34.682Z,14.95
2023-05-05T16:35:02.830Z,14.86
2023-05-05T16:37:30.637Z,14.78
2023-05-05T16:39:58.861Z,14.68
2023-05-05T16:42:27.612Z,14.59
2023-05-05T16:44:55.510Z,14.54
2023-05-05T16:47:23.688Z,14.49
2023-05-05T16:49:52.974Z,14.44
2023-05-05T16:52:20.823Z,14.41
2023-05-05T16:54:55.928Z,14.40
2023-05-05T16:57:23.930Z,14.45
2023-05-05T16:59:51.731Z,14.53
2023-05-05T17:02:19.961Z,14.58
2023-05-05T17:04:47.920Z,14.61
2023-05-05T17:07:16.183Z,14.61
2023-05-05T17:09:44.053Z,14.62
2023-05-05T17:12:11.844Z,14.62
2023-05-05T17:14:39.873Z,14.60
2023-05-05T17:17:07.816Z,14.62
2023-05-05T17:19:36.151Z,14.64
2023-05-05T17:22:04.006Z,14.68
2023-05-05T17:24:32.076Z,14.72
2023-05-05T17:26:59.956Z,14.74
2023-05-05T17:29:28.036Z,14.73
2023-05-05T17:31:55.986Z,14.76
2023-05-05T17:34:23.829Z,14.77
2023-05-05T17:36:51.713Z,14.76
2023-05-05T17:39:19.690Z,14.74
2023-05-05T17:41:47.644Z,14.73
2023-05-05T17:44:16.616Z,14.72
2023-05-05T17:46:44.718Z,14.74
2023-05-05T17:49:12.522Z,14.74
2023-05-05T17:51:40.823Z,14.75
2023-05-05T17:54:08.661Z,14.78
2023-05-05T17:56:37.421Z,14.79
2023-05-05T17:59:05.269Z,14.81
2023-05-05T18:01:33.356Z,14.84
2023-05-05T18:04:01.384Z,14.86
2023-05-05T18:06:29.607Z,14.91
2023-05-05T18:08:58.718Z,14.95
2023-05-05T18:11:29.100Z,14.99
2023-05-05T18:13:57.427Z,15.01
2023-05-05T18:16:25.588Z,15.00
2023-05-05T18:18:53.606Z,14.97
2023-05-05T18:21:22.001Z,14.92
2023-05-05T18:23:50.334Z,14.89
2023-05-05T18:26:18.342Z,14.86
2023-05-05T18:28:46.173Z,14.82
2023-05-05T18:31:14.281Z,14.80
2023-05-05T18:33:42.745Z,14.74
2023-05-05T18:36:11.189Z,14.68
2023-05-05T18:38:39.269Z,14.61
2023-05-05T18:41:07.499Z,14.56
2023-05-05T18:43:35.283Z,14.55
2023-05-05T18:46:03.615Z,14.52
2023-05-05T18:48:31.390Z,14.47
2023-05-05T18:50:59.149Z,14.43
2023-05-05T18:53:27.162Z,14.36
2023-05-05T18:55:54.950Z,14.32
2023-05-05T18:58:24.304Z,14.29
2023-05-05T19:00:52.536Z,14.25
2023-05-05T19:03:20.438Z,14.20
2023-05-05T19:05:48.128Z,14.17
2023-05-05T19:08:16.107Z,14.11
2023-05-05T19:10:44.558Z,14.06
2023-05-05T19:13:12.491Z,14.01
2023-05-05T19:15:40.577Z,13.96
2023-05-05T19:18:08.577Z,13.90
2023-05-05T19:20:38.790Z,13.85
2023-05-05T19:23:07.804Z,13.81
2023-05-05T19:25:35.601Z,13.76
2023-05-05T19:28:03.373Z,13.73
2023-05-05T19:30:31.573Z,13.69
2023-05-05T19:32:59.434Z,13.65
2023-05-05T19:35:29.696Z,13.62
2023-05-05T19:37:57.629Z,13.59
2023-05-05T19:40:25.341Z,13.55
2023-05-05T19:42:53.535Z,13.53
2023-05-05T19:45:21.594Z,13.51
2023-05-05T19:47:50.000Z,13.50
2023-05-05T19:50:17.903Z,13.49
2023-05-05T19:52:45.933Z,13.46
2023-05-05T19:55:14.270Z,13.44
2023-05-05T19:57:42.145Z,13.41
2023-05-05T20:00:11.273Z,13.38
2023-05-05T20:02:39.418Z,13.35
2023-05-05T20:05:07.377Z,13.34
2023-05-05T20:07:35.249Z,13.33
2023-05-05T20:10:03.067Z,13.33
2023-05-05T20:12:31.755Z,13.34
2023-05-05T20:14:59.687Z,13.35
2023-05-05T20:17:27.532Z,13.36
2023-05-05T20:19:55.359Z,13.37
2023-05-05T20:22:23.304Z,13.37
2023-05-05T20:24:51.946Z,13.37
2023-05-05T20:27:21.142Z,13.33
2023-05-05T20:29:49.165Z,13.25
2023-05-05T20:32:20.653Z,13.19
2023-05-05T20:34:48.970Z,13.13
2023-05-05T20:37:17.421Z,13.08
2023-05-05T20:39:45.256Z,13.04
2023-05-05T20:42:13.013Z,13.02
2023-05-05T20:44:41.468Z,13.01
2023-05-05T20:47:09.330Z,13.02
2023-05-05T20:49:39.122Z,13.01
2023-05-05T20:52:07.141Z,12.99
2023-05-05T20:54:34.967Z,12.95
2023-05-05T20:57:03.283Z,12.90
2023-05-05T20:59:31.130Z,12.84
2023-05-05T21:01:59.621Z,12.79
2023-05-05T21:04:27.723Z,12.73
2023-05-05T21:06:55.629Z,12.66
2023-05-05T21:09:23.546Z,12.59
2023-05-05T21:11:51.880Z,12.51
2023-05-05T21:14:20.503Z,12.45
2023-05-05T21:16:48.503Z,12.38
2023-05-05T21:19:16.593Z,12.32
2023-05-05T21:21:44.585Z,12.26
2023-05-05T21:24:13.235Z,12.20
2023-05-05T21:26:41.580Z,12.13
2023-05-05T21:29:09.495Z,12.09
2023-05-05T21:31:37.328Z,12.05
2023-05-05T21:34:05.138Z,12.02
2023-05-05T21:36:34.106Z,11.99
2023-05-05T21:39:02.227Z,11.97
2023-05-05T21:41:30.074Z,11.92
2023-05-05T21:43:57.906Z,11.89
2023-05-05T21:46:25.688Z,11.87
2023-05-05T21:48:53.683Z,11.89
2023-05-05T21:51:22.805Z,11.91
2023-05-05T21:53:50.629Z,11.95
2023-05-05T21:56:18.732Z,11.97
2023-05-05T21:58:46.525Z,12.01
2023-05-05T22:01:14.450Z,12.06
2023-05-05T22:03:44.215Z,12.12
2023-05-05T22:06:12.704Z,12.13
2023-05-05T22:08:40.564Z,12.14
2023-05-05T22:11:08.344Z,12.15
2023-05-05T22:13:36.079Z,12.16
2023-05-05T22:16:04.682Z,12.14
2023-05-05T22:18:32.872Z,12.09
2023-05-05T22:21:00.776Z,12.07
2023-05-05T22:23:28.489Z,12.03
2023-05-05T22:25:57.072Z,12.01
2023-05-05T22:28:25.253Z,12.00
2023-05-05T22:30:52.921Z,12.00
2023-05-05T22:33:20.584Z,12.00
2023-05-05T22:35:48.340Z,12.01
2023-05-05T22:38:16.036Z,12.02
2023-05-05T22:40:45.967Z,12.03
2023-05-05T22:43:13.762Z,12.03
2023-05-05T22:45:41.434Z,12.03
2023-05-05T22:48:09.150Z,12.01
2023-05-05T22:50:36.894Z,11.97
2023-05-05T22:53:04.875Z,11.95
2023-05-05T22:55:32.610Z,11.93
2023-05-05T22:58:00.365Z,11.91
2023-05-05T23:00:28.463Z,11.92
2023-05-05T23:02:56.340Z,11.90
2023-05-05T23:05:24.664Z,11.86
2023-05-05T23:07:52.452Z,11.84
2023-05-05T23:10:20.066Z,11.85
2023-05-05T23:12:47.817Z,11.88
2023-05-05T23:15:15.896Z,11.91
2023-05-05T23:17:43.967Z,11.95
2023-05-05T23:20:13.299Z,11.98
2023-05-05T23:22:40.930Z,12.05
2023-05-05T23:25:09.217Z,12.09
2023-05-05T23:27:37.035Z,12.15
2023-05-05T23:30:05.204Z,12.19
2023-05-05T23:32:32.969Z,12.22
2023-05-05T23:35:01.280Z,12.25
2023-05-05T23:37:28.920Z,12.26
2023-05-05T23:39:56.533Z,12.28
2023-05-05T23:42:24.562Z,12.29
2023-05-05T23:44:52.196Z,12.29
2023-05-05T23:47:20.122Z,12.31
2023-05-05T23:49:47.866Z,12.32
2023-05-05T23:52:15.502Z,12.33
2023-05-05T23:54:43.487Z,12.34
2023-05-05T23:57:11.362Z,12.36
2023-05-05T23:59:38.927Z,12.39
